General Aviation Weather

Text Reports

Enter one or more of the following location identifiers separated by a space:

Zip Code, Four-Character ICAO or Three-Character IATA airport codes.

METAR - Aviation Routine Weather Report
KGYH - Greenville, South Carolina
Updated at 5:47 PM GMT on July 28, 2016 (1:47 PM EDT):
METAR KGYH 281747Z 24015G21KT 10SM SCT043 33/20 A2998
TAF - Terminal Area Forecast
KGYH - Greenville, South Carolina
Updated at 5:47 PM GMT on July 28, 2016 (1:47 PM EDT):
No TAF is currently available for this location.
Decoded:
No decoded TAF is available.
PIREP - Pilot Weather Report
KGYH - Greenville, South Carolina
Updated at 5:47 PM GMT on July 28, 2016 (1:47 PM EDT):
No PIREP is currently available for this location.
AIRMET - Airmens Meteorological Information
KGYH - Greenville, South Carolina
Updated at 5:47 PM GMT on July 28, 2016 (1:47 PM EDT):
No AIRMET is currently available for this location.
SIGMET - Significant Meteorological Information
KGYH - Greenville, South Carolina
Updated at 5:47 PM GMT on July 28, 2016 (1:47 PM EDT):
No SIGMET is currently available for this location.
NOTAM - Notice to Airmen
KGYH - Greenville, South Carolina
Updated at 5:47 PM GMT on July 28, 2016 (1:47 PM EDT):
No NOTAM is currently available for this location.
Forecast Area
KGYH - Greenville, South Carolina
Updated at 5:47 PM GMT on July 28, 2016 (1:47 PM EDT):
No NOTAM is currently available for this location.
Aviation Weather Maps